sensor_id;sensor_type;location;lat;lon;timestamp;pressure;altitude;pressure_sealevel;temperature;humidity
47706;BME280;33471;52.104;1.318;2022-12-18T00:00:47;102060.67;;;3.93;47.10
47706;BME280;33471;52.104;1.318;2022-12-18T00:03:14;102062.21;;;4.68;47.01
47706;BME280;33471;52.104;1.318;2022-12-18T00:05:47;102064.01;;;4.39;47.47
47706;BME280;33471;52.104;1.318;2022-12-18T00:08:15;102066.62;;;4.84;47.19
47706;BME280;33471;52.104;1.318;2022-12-18T00:10:42;102068.56;;;4.59;46.59
47706;BME280;33471;52.104;1.318;2022-12-18T00:13:10;102067.77;;;4.99;46.41
47706;BME280;33471;52.104;1.318;2022-12-18T00:15:39;102065.00;;;4.85;45.93
47706;BME280;33471;52.104;1.318;2022-12-18T00:18:07;102062.31;;;5.54;45.27
47706;BME280;33471;52.104;1.318;2022-12-18T00:20:36;102066.27;;;5.51;45.43
47706;BME280;33471;52.104;1.318;2022-12-18T00:23:05;102066.56;;;5.33;45.79
47706;BME280;33471;52.104;1.318;2022-12-18T00:25:33;102068.17;;;5.30;45.39
47706;BME280;33471;52.104;1.318;2022-12-18T00:28:01;102064.25;;;4.97;45.40
47706;BME280;33471;52.104;1.318;2022-12-18T00:30:28;102063.23;;;5.27;45.39
47706;BME280;33471;52.104;1.318;2022-12-18T00:32:57;102076.26;;;3.51;47.20
47706;BME280;33471;52.104;1.318;2022-12-18T00:35:24;102073.60;;;4.34;47.24
47706;BME280;33471;52.104;1.318;2022-12-18T00:37:51;102074.62;;;4.67;46.12
47706;BME280;33471;52.104;1.318;2022-12-18T00:40:19;102072.06;;;5.27;45.92
47706;BME280;33471;52.104;1.318;2022-12-18T00:42:47;102077.16;;;4.79;45.34
47706;BME280;33471;52.104;1.318;2022-12-18T00:45:14;102078.07;;;4.75;45.67
47706;BME280;33471;52.104;1.318;2022-12-18T00:47:42;102078.94;;;4.52;45.58
47706;BME280;33471;52.104;1.318;2022-12-18T00:50:09;102079.84;;;5.04;45.19
47706;BME280;33471;52.104;1.318;2022-12-18T00:52:41;102078.80;;;5.68;44.73
47706;BME280;33471;52.104;1.318;2022-12-18T00:55:10;102081.02;;;5.21;45.12
47706;BME280;33471;52.104;1.318;2022-12-18T00:57:37;102081.64;;;5.12;45.34
47706;BME280;33471;52.104;1.318;2022-12-18T01:00:07;102075.01;;;4.89;45.06
47706;BME280;33471;52.104;1.318;2022-12-18T01:02:34;102075.23;;;5.46;44.71
47706;BME280;33471;52.104;1.318;2022-12-18T01:05:02;102073.60;;;5.15;44.52
47706;BME280;33471;52.104;1.318;2022-12-18T01:07:29;102067.34;;;5.49;44.39
47706;BME280;33471;52.104;1.318;2022-12-18T01:09:56;102067.58;;;4.97;44.41
47706;BME280;33471;52.104;1.318;2022-12-18T01:12:24;102068.63;;;5.73;44.19
47706;BME280;33471;52.104;1.318;2022-12-18T01:14:51;102070.25;;;5.20;44.18
47706;BME280;33471;52.104;1.318;2022-12-18T01:17:19;102075.99;;;4.40;46.22
47706;BME280;33471;52.104;1.318;2022-12-18T01:19:47;102069.33;;;4.52;45.41
47706;BME280;33471;52.104;1.318;2022-12-18T01:22:14;102054.59;;;5.00;45.26
47706;BME280;33471;52.104;1.318;2022-12-18T01:24:42;102050.51;;;4.72;45.13
47706;BME280;33471;52.104;1.318;2022-12-18T01:27:09;102053.17;;;4.84;44.56
47706;BME280;33471;52.104;1.318;2022-12-18T01:29:36;102049.51;;;5.23;44.81
47706;BME280;33471;52.104;1.318;2022-12-18T01:32:03;102047.53;;;5.47;44.20
47706;BME280;33471;52.104;1.318;2022-12-18T01:34:31;102041.70;;;5.45;44.05
47706;BME280;33471;52.104;1.318;2022-12-18T01:36:58;102042.17;;;5.09;44.52
47706;BME280;33471;52.104;1.318;2022-12-18T01:39:29;102043.05;;;4.61;45.77
47706;BME280;33471;52.104;1.318;2022-12-18T01:41:56;102043.04;;;4.70;45.43
47706;BME280;33471;52.104;1.318;2022-12-18T01:45:00;102045.14;;;4.75;44.98
47706;BME280;33471;52.104;1.318;2022-12-18T01:47:33;102038.53;;;4.71;45.30
47706;BME280;33471;52.104;1.318;2022-12-18T01:50:05;102033.38;;;4.16;45.20
47706;BME280;33471;52.104;1.318;2022-12-18T01:52:33;102034.82;;;4.96;44.74
47706;BME280;33471;52.104;1.318;2022-12-18T01:55:03;102037.62;;;4.73;44.35
47706;BME280;33471;52.104;1.318;2022-12-18T01:57:32;102035.06;;;4.76;44.17
47706;BME280;33471;52.104;1.318;2022-12-18T02:00:03;102029.26;;;4.63;44.13
47706;BME280;33471;52.104;1.318;2022-12-18T02:02:31;102027.43;;;4.49;44.35
47706;BME280;33471;52.104;1.318;2022-12-18T02:04:58;102030.43;;;4.32;44.28
47706;BME280;33471;52.104;1.318;2022-12-18T02:07:33;102027.12;;;4.58;43.98
47706;BME280;33471;52.104;1.318;2022-12-18T02:10:09;102019.61;;;4.67;43.92
47706;BME280;33471;52.104;1.318;2022-12-18T02:12:45;102018.78;;;4.86;43.69
47706;BME280;33471;52.104;1.318;2022-12-18T02:15:19;102021.88;;;4.60;43.36
47706;BME280;33471;52.104;1.318;2022-12-18T02:17:55;102020.11;;;4.16;43.72
47706;BME280;33471;52.104;1.318;2022-12-18T02:20:30;102014.31;;;4.58;43.58
47706;BME280;33471;52.104;1.318;2022-12-18T02:23:08;102020.29;;;4.63;43.74
47706;BME280;33471;52.104;1.318;2022-12-18T02:26:20;102014.08;;;4.82;44.17
47706;BME280;33471;52.104;1.318;2022-12-18T02:28:55;102004.38;;;3.53;44.14
47706;BME280;33471;52.104;1.318;2022-12-18T02:31:27;102003.14;;;3.77;44.33
47706;BME280;33471;52.104;1.318;2022-12-18T02:34:02;102009.53;;;2.52;44.20
47706;BME280;33471;52.104;1.318;2022-12-18T02:36:32;102001.58;;;4.22;43.93
47706;BME280;33471;52.104;1.318;2022-12-18T02:39:02;101999.41;;;3.88;43.94
47706;BME280;33471;52.104;1.318;2022-12-18T02:41:30;101998.77;;;4.29;44.31
47706;BME280;33471;52.104;1.318;2022-12-18T02:44:01;102005.74;;;3.85;44.53
47706;BME280;33471;52.104;1.318;2022-12-18T02:46:35;102011.44;;;4.26;44.68
47706;BME280;33471;52.104;1.318;2022-12-18T02:49:10;102013.73;;;4.13;44.53
47706;BME280;33471;52.104;1.318;2022-12-18T02:51:48;102012.71;;;4.32;44.76
47706;BME280;33471;52.104;1.318;2022-12-18T02:54:25;102012.61;;;4.12;44.64
47706;BME280;33471;52.104;1.318;2022-12-18T02:56:58;102013.40;;;3.62;44.12
47706;BME280;33471;52.104;1.318;2022-12-18T02:59:34;102017.12;;;4.41;44.20
47706;BME280;33471;52.104;1.318;2022-12-18T03:02:07;102014.32;;;4.18;43.87
47706;BME280;33471;52.104;1.318;2022-12-18T03:04:42;102012.94;;;4.07;44.17
47706;BME280;33471;52.104;1.318;2022-12-18T03:07:13;102020.26;;;4.42;44.21
47706;BME280;33471;52.104;1.318;2022-12-18T03:09:46;102019.15;;;4.17;43.84
47706;BME280;33471;52.104;1.318;2022-12-18T03:12:18;102017.52;;;4.18;43.94
47706;BME280;33471;52.104;1.318;2022-12-18T03:14:50;102021.13;;;4.03;44.03
47706;BME280;33471;52.104;1.318;2022-12-18T03:17:21;102023.36;;;4.20;43.98
47706;BME280;33471;52.104;1.318;2022-12-18T03:19:51;102026.45;;;3.70;44.01
47706;BME280;33471;52.104;1.318;2022-12-18T03:22:22;102024.64;;;4.01;43.89
47706;BME280;33471;52.104;1.318;2022-12-18T03:24:52;102024.38;;;3.25;43.95
47706;BME280;33471;52.104;1.318;2022-12-18T03:27:22;102028.43;;;3.95;43.80
47706;BME280;33471;52.104;1.318;2022-12-18T03:29:56;102032.15;;;3.18;43.97
47706;BME280;33471;52.104;1.318;2022-12-18T03:32:31;102036.00;;;3.93;43.96
47706;BME280;33471;52.104;1.318;2022-12-18T03:35:04;102038.56;;;3.65;43.94
47706;BME280;33471;52.104;1.318;2022-12-18T03:37:31;102038.42;;;4.08;43.82
47706;BME280;33471;52.104;1.318;2022-12-18T03:39:59;102039.18;;;2.82;44.16
47706;BME280;33471;52.104;1.318;2022-12-18T03:42:29;102040.89;;;4.04;43.77
47706;BME280;33471;52.104;1.318;2022-12-18T03:45:07;102043.86;;;2.97;43.97
47706;BME280;33471;52.104;1.318;2022-12-18T03:47:41;102041.14;;;3.55;44.24
47706;BME280;33471;52.104;1.318;2022-12-18T03:50:16;102027.51;;;3.81;44.18
47706;BME280;33471;52.104;1.318;2022-12-18T03:52:49;102022.15;;;2.97;45.53
47706;BME280;33471;52.104;1.318;2022-12-18T03:55:20;102020.94;;;3.43;45.08
47706;BME280;33471;52.104;1.318;2022-12-18T03:57:49;102015.53;;;3.11;45.36
47706;BME280;33471;52.104;1.318;2022-12-18T04:00:19;102006.69;;;3.62;45.07
47706;BME280;33471;52.104;1.318;2022-12-18T04:02:51;102001.41;;;3.87;44.42
47706;BME280;33471;52.104;1.318;2022-12-18T04:05:20;101996.53;;;3.66;44.80
47706;BME280;33471;52.104;1.318;2022-12-18T04:07:49;101997.00;;;3.62;44.60
47706;BME280;33471;52.104;1.318;2022-12-18T04:10:19;101993.66;;;3.52;44.75
47706;BME280;33471;52.104;1.318;2022-12-18T04:12:47;101991.01;;;3.84;44.59
47706;BME280;33471;52.104;1.318;2022-12-18T04:15:14;101990.04;;;3.96;44.26
47706;BME280;33471;52.104;1.318;2022-12-18T04:17:48;101990.24;;;3.92;44.54
47706;BME280;33471;52.104;1.318;2022-12-18T04:20:16;101992.76;;;3.92;44.42
47706;BME280;33471;52.104;1.318;2022-12-18T04:22:44;101989.21;;;3.75;44.77
47706;BME280;33471;52.104;1.318;2022-12-18T04:25:12;101987.51;;;3.91;44.65
47706;BME280;33471;52.104;1.318;2022-12-18T04:27:39;101983.53;;;3.75;44.74
47706;BME280;33471;52.104;1.318;2022-12-18T04:30:07;101984.10;;;3.97;44.49
47706;BME280;33471;52.104;1.318;2022-12-18T04:32:35;101984.06;;;3.87;44.54
47706;BME280;33471;52.104;1.318;2022-12-18T04:35:02;101978.19;;;3.68;44.38
47706;BME280;33471;52.104;1.318;2022-12-18T04:37:30;101985.73;;;3.85;44.77
47706;BME280;33471;52.104;1.318;2022-12-18T04:39:58;101985.44;;;2.88;45.01
47706;BME280;33471;52.104;1.318;2022-12-18T04:42:31;101978.13;;;3.56;44.92
47706;BME280;33471;52.104;1.318;2022-12-18T04:45:02;101976.92;;;2.59;43.34
47706;BME280;33471;52.104;1.318;2022-12-18T04:47:31;101973.57;;;3.51;41.57
47706;BME280;33471;52.104;1.318;2022-12-18T04:49:58;101964.32;;;5.20;41.55
47706;BME280;33471;52.104;1.318;2022-12-18T04:52:25;101953.86;;;4.59;41.90
47706;BME280;33471;52.104;1.318;2022-12-18T04:54:53;101950.95;;;5.13;42.53
47706;BME280;33471;52.104;1.318;2022-12-18T04:57:21;101950.72;;;5.05;42.57
47706;BME280;33471;52.104;1.318;2022-12-18T04:59:48;101951.46;;;4.16;43.22
47706;BME280;33471;52.104;1.318;2022-12-18T05:02:16;101948.32;;;5.10;42.69
47706;BME280;33471;52.104;1.318;2022-12-18T05:04:43;101941.27;;;4.63;43.40
47706;BME280;33471;52.104;1.318;2022-12-18T05:07:10;101940.41;;;4.58;43.85
47706;BME280;33471;52.104;1.318;2022-12-18T05:09:40;101942.10;;;2.64;43.90
47706;BME280;33471;52.104;1.318;2022-12-18T05:12:16;101944.73;;;4.00;42.69
47706;BME280;33471;52.104;1.318;2022-12-18T05:14:53;101942.26;;;4.29;42.21
47706;BME280;33471;52.104;1.318;2022-12-18T05:17:27;101940.19;;;3.93;42.07
47706;BME280;33471;52.104;1.318;2022-12-18T05:19:54;101928.01;;;4.62;41.85
47706;BME280;33471;52.104;1.318;2022-12-18T05:22:21;101922.32;;;5.11;41.93
47706;BME280;33471;52.104;1.318;2022-12-18T05:24:49;101924.41;;;5.18;42.62
47706;BME280;33471;52.104;1.318;2022-12-18T05:27:16;101923.94;;;4.95;42.55
47706;BME280;33471;52.104;1.318;2022-12-18T05:29:44;101910.26;;;4.93;42.25
47706;BME280;33471;52.104;1.318;2022-12-18T05:32:11;101904.27;;;4.95;42.57
47706;BME280;33471;52.104;1.318;2022-12-18T05:34:38;101893.35;;;4.71;42.11
47706;BME280;33471;52.104;1.318;2022-12-18T05:37:06;101892.24;;;4.67;42.67
47706;BME280;33471;52.104;1.318;2022-12-18T05:39:33;101887.41;;;4.91;42.67
47706;BME280;33471;52.104;1.318;2022-12-18T05:42:00;101880.06;;;4.42;42.51
47706;BME280;33471;52.104;1.318;2022-12-18T05:44:27;101873.27;;;5.09;42.43
47706;BME280;33471;52.104;1.318;2022-12-18T05:46:55;101867.70;;;4.73;42.22
47706;BME280;33471;52.104;1.318;2022-12-18T05:49:22;101866.89;;;5.14;42.69
47706;BME280;33471;52.104;1.318;2022-12-18T05:51:50;101861.89;;;4.98;42.63
47706;BME280;33471;52.104;1.318;2022-12-18T05:54:17;101852.69;;;5.12;42.78
47706;BME280;33471;52.104;1.318;2022-12-18T05:56:45;101844.51;;;5.42;42.49
47706;BME280;33471;52.104;1.318;2022-12-18T05:59:12;101835.60;;;5.03;42.82
47706;BME280;33471;52.104;1.318;2022-12-18T06:01:39;101828.91;;;5.49;42.61
47706;BME280;33471;52.104;1.318;2022-12-18T06:04:06;101827.72;;;4.67;43.08
47706;BME280;33471;52.104;1.318;2022-12-18T06:06:33;101823.06;;;5.32;43.47
47706;BME280;33471;52.104;1.318;2022-12-18T06:09:00;101806.95;;;4.47;43.93
47706;BME280;33471;52.104;1.318;2022-12-18T06:11:27;101804.44;;;4.24;44.44
47706;BME280;33471;52.104;1.318;2022-12-18T06:13:56;101801.63;;;4.47;44.23
47706;BME280;33471;52.104;1.318;2022-12-18T06:16:23;101798.58;;;5.07;43.60
47706;BME280;33471;52.104;1.318;2022-12-18T06:18:51;101799.60;;;4.39;44.05
47706;BME280;33471;52.104;1.318;2022-12-18T06:21:17;101805.70;;;4.28;44.87
47706;BME280;33471;52.104;1.318;2022-12-18T06:23:44;101814.18;;;4.84;44.43
47706;BME280;33471;52.104;1.318;2022-12-18T06:26:13;101807.23;;;4.51;43.99
47706;BME280;33471;52.104;1.318;2022-12-18T06:28:41;101800.11;;;4.58;44.25
47706;BME280;33471;52.104;1.318;2022-12-18T06:31:09;101785.29;;;4.85;43.65
47706;BME280;33471;52.104;1.318;2022-12-18T06:33:36;101787.06;;;4.90;43.43
47706;BME280;33471;52.104;1.318;2022-12-18T06:36:05;101799.16;;;4.01;43.38
47706;BME280;33471;52.104;1.318;2022-12-18T06:38:33;101802.22;;;4.66;43.72
47706;BME280;33471;52.104;1.318;2022-12-18T06:41:06;101801.71;;;4.48;44.16
47706;BME280;33471;52.104;1.318;2022-12-18T06:43:33;101783.24;;;4.19;45.03
47706;BME280;33471;52.104;1.318;2022-12-18T06:46:03;101770.07;;;2.36;45.95
47706;BME280;33471;52.104;1.318;2022-12-18T06:48:31;101769.22;;;4.45;43.80
47706;BME280;33471;52.104;1.318;2022-12-18T06:50:58;101773.02;;;4.05;44.90
47706;BME280;33471;52.104;1.318;2022-12-18T06:53:25;101770.10;;;3.94;45.71
47706;BME280;33471;52.104;1.318;2022-12-18T06:55:58;101759.11;;;3.23;46.06
47706;BME280;33471;52.104;1.318;2022-12-18T06:58:26;101764.29;;;3.67;46.53
47706;BME280;33471;52.104;1.318;2022-12-18T07:00:58;101768.09;;;3.46;46.51
47706;BME280;33471;52.104;1.318;2022-12-18T07:03:25;101771.12;;;3.36;47.42
47706;BME280;33471;52.104;1.318;2022-12-18T07:05:53;101778.97;;;2.98;47.17
47706;BME280;33471;52.104;1.318;2022-12-18T07:08:20;101778.75;;;4.34;46.44
47706;BME280;33471;52.104;1.318;2022-12-18T07:10:48;101778.81;;;4.48;46.23
47706;BME280;33471;52.104;1.318;2022-12-18T07:13:21;101786.62;;;4.11;46.23
47706;BME280;33471;52.104;1.318;2022-12-18T07:15:49;101800.32;;;4.50;46.31
47706;BME280;33471;52.104;1.318;2022-12-18T07:18:16;101805.62;;;4.58;45.65
47706;BME280;33471;52.104;1.318;2022-12-18T07:20:43;101799.38;;;4.10;47.74
47706;BME280;33471;52.104;1.318;2022-12-18T07:23:10;101803.79;;;3.86;47.56
47706;BME280;33471;52.104;1.318;2022-12-18T07:25:38;101808.19;;;4.92;46.89
47706;BME280;33471;52.104;1.318;2022-12-18T07:28:05;101798.86;;;4.24;47.00
47706;BME280;33471;52.104;1.318;2022-12-18T07:30:32;101785.97;;;4.07;47.97
47706;BME280;33471;52.104;1.318;2022-12-18T07:32:59;101783.07;;;4.06;48.46
47706;BME280;33471;52.104;1.318;2022-12-18T07:35:26;101778.30;;;2.82;51.12
47706;BME280;33471;52.104;1.318;2022-12-18T07:37:54;101772.58;;;2.63;50.54
47706;BME280;33471;52.104;1.318;2022-12-18T07:40:21;101773.45;;;3.54;50.10
47706;BME280;33471;52.104;1.318;2022-12-18T07:42:49;101778.22;;;3.31;50.68
47706;BME280;33471;52.104;1.318;2022-12-18T07:45:17;101784.25;;;3.74;49.75
47706;BME280;33471;52.104;1.318;2022-12-18T07:47:44;101779.77;;;4.26;49.12
47706;BME280;33471;52.104;1.318;2022-12-18T07:50:11;101783.36;;;4.08;48.52
47706;BME280;33471;52.104;1.318;2022-12-18T07:52:38;101781.92;;;4.93;48.06
47706;BME280;33471;52.104;1.318;2022-12-18T07:55:06;101777.69;;;3.78;48.25
47706;BME280;33471;52.104;1.318;2022-12-18T07:57:34;101781.43;;;4.89;47.65
47706;BME280;33471;52.104;1.318;2022-12-18T08:00:02;101781.86;;;3.69;48.74
47706;BME280;33471;52.104;1.318;2022-12-18T08:02:30;101780.34;;;4.98;47.37
47706;BME280;33471;52.104;1.318;2022-12-18T08:05:04;101783.01;;;4.32;46.90
47706;BME280;33471;52.104;1.318;2022-12-18T08:07:31;101782.87;;;5.04;47.21
47706;BME280;33471;52.104;1.318;2022-12-18T08:09:58;101782.94;;;4.32;46.24
47706;BME280;33471;52.104;1.318;2022-12-18T08:12:25;101776.19;;;5.43;46.42
47706;BME280;33471;52.104;1.318;2022-12-18T08:14:53;101775.18;;;4.46;47.94
47706;BME280;33471;52.104;1.318;2022-12-18T08:17:20;101769.76;;;4.14;49.34
47706;BME280;33471;52.104;1.318;2022-12-18T08:19:48;101763.10;;;4.60;48.13
47706;BME280;33471;52.104;1.318;2022-12-18T08:22:15;101756.34;;;4.25;48.20
47706;BME280;33471;52.104;1.318;2022-12-18T08:24:42;101746.80;;;4.16;48.20
47706;BME280;33471;52.104;1.318;2022-12-18T08:27:09;101732.53;;;4.56;46.95
47706;BME280;33471;52.104;1.318;2022-12-18T08:29:36;101728.80;;;5.25;47.11
47706;BME280;33471;52.104;1.318;2022-12-18T08:32:04;101738.61;;;3.53;49.12
47706;BME280;33471;52.104;1.318;2022-12-18T08:34:32;101743.25;;;4.48;49.09
47706;BME280;33471;52.104;1.318;2022-12-18T08:36:59;101741.54;;;3.92;48.92
47706;BME280;33471;52.104;1.318;2022-12-18T08:39:26;101738.51;;;4.73;48.85
47706;BME280;33471;52.104;1.318;2022-12-18T08:41:54;101739.56;;;4.10;49.46
47706;BME280;33471;52.104;1.318;2022-12-18T08:44:21;101749.71;;;4.54;49.33
47706;BME280;33471;52.104;1.318;2022-12-18T08:46:49;101751.16;;;4.65;48.75
47706;BME280;33471;52.104;1.318;2022-12-18T08:49:16;101750.09;;;5.07;48.56
47706;BME280;33471;52.104;1.318;2022-12-18T08:51:44;101748.61;;;5.10;48.60
47706;BME280;33471;52.104;1.318;2022-12-18T08:54:12;101745.54;;;3.68;50.67
47706;BME280;33471;52.104;1.318;2022-12-18T08:56:39;101734.07;;;4.31;49.81
47706;BME280;33471;52.104;1.318;2022-12-18T08:59:09;101724.97;;;3.51;49.38
47706;BME280;33471;52.104;1.318;2022-12-18T09:01:37;101718.93;;;4.38;48.55
47706;BME280;33471;52.104;1.318;2022-12-18T09:04:04;101716.70;;;4.45;48.23
47706;BME280;33471;52.104;1.318;2022-12-18T09:06:32;101715.22;;;4.71;48.82
47706;BME280;33471;52.104;1.318;2022-12-18T09:08:58;101725.75;;;4.42;47.97
47706;BME280;33471;52.104;1.318;2022-12-18T09:11:28;101730.04;;;4.64;48.71
47706;BME280;33471;52.104;1.318;2022-12-18T09:13:55;101736.35;;;4.41;48.74
47706;BME280;33471;52.104;1.318;2022-12-18T09:16:24;101742.20;;;4.64;48.41
47706;BME280;33471;52.104;1.318;2022-12-18T09:18:52;101748.87;;;3.98;49.28
47706;BME280;33471;52.104;1.318;2022-12-18T09:21:20;101744.98;;;4.64;48.56
47706;BME280;33471;52.104;1.318;2022-12-18T09:23:50;101735.17;;;4.16;48.69
47706;BME280;33471;52.104;1.318;2022-12-18T09:26:18;101739.13;;;3.79;49.85
47706;BME280;33471;52.104;1.318;2022-12-18T09:28:47;101736.50;;;4.79;48.88
47706;BME280;33471;52.104;1.318;2022-12-18T09:31:18;101729.17;;;4.70;47.72
47706;BME280;33471;52.104;1.318;2022-12-18T09:33:46;101722.04;;;4.89;47.95
47706;BME280;33471;52.104;1.318;2022-12-18T09:36:15;101711.00;;;4.73;47.13
47706;BME280;33471;52.104;1.318;2022-12-18T09:38:42;101701.79;;;5.85;45.53
47706;BME280;33471;52.104;1.318;2022-12-18T09:41:19;101703.97;;;5.73;45.36
47706;BME280;33471;52.104;1.318;2022-12-18T09:43:51;101698.37;;;5.33;46.16
47706;BME280;33471;52.104;1.318;2022-12-18T09:46:25;101702.15;;;5.08;46.00
47706;BME280;33471;52.104;1.318;2022-12-18T09:48:56;101702.37;;;4.89;45.44
47706;BME280;33471;52.104;1.318;2022-12-18T09:51:27;101700.95;;;5.92;44.99
47706;BME280;33471;52.104;1.318;2022-12-18T09:53:59;101700.58;;;4.85;44.70
47706;BME280;33471;52.104;1.318;2022-12-18T09:56:31;101700.78;;;5.77;44.73
47706;BME280;33471;52.104;1.318;2022-12-18T09:59:00;101718.63;;;3.82;46.48
47706;BME280;33471;52.104;1.318;2022-12-18T10:01:29;101708.08;;;4.60;46.58
47706;BME280;33471;52.104;1.318;2022-12-18T10:03:57;101702.50;;;3.81;47.86
47706;BME280;33471;52.104;1.318;2022-12-18T10:06:29;101702.48;;;4.16;47.51
47706;BME280;33471;52.104;1.318;2022-12-18T10:09:03;101691.75;;;3.80;46.81
47706;BME280;33471;52.104;1.318;2022-12-18T10:11:39;101688.37;;;4.49;47.58
47706;BME280;33471;52.104;1.318;2022-12-18T10:14:17;101689.03;;;4.10;47.05
47706;BME280;33471;52.104;1.318;2022-12-18T10:16:54;101670.16;;;4.71;46.39
47706;BME280;33471;52.104;1.318;2022-12-18T10:19:35;101666.98;;;5.29;46.45
47706;BME280;33471;52.104;1.318;2022-12-18T10:22:14;101696.25;;;4.72;47.37
47706;BME280;33471;52.104;1.318;2022-12-18T10:24:51;101677.45;;;5.11;46.41
47706;BME280;33471;52.104;1.318;2022-12-18T10:27:24;101685.92;;;4.64;46.91
47706;BME280;33471;52.104;1.318;2022-12-18T10:29:53;101671.24;;;4.47;47.10
47706;BME280;33471;52.104;1.318;2022-12-18T10:32:23;101687.65;;;4.22;47.70
47706;BME280;33471;52.104;1.318;2022-12-18T10:34:53;101680.98;;;4.78;46.52
47706;BME280;33471;52.104;1.318;2022-12-18T10:37:24;101677.45;;;4.67;47.41
47706;BME280;33471;52.104;1.318;2022-12-18T10:40:09;101673.57;;;4.77;47.12
47706;BME280;33471;52.104;1.318;2022-12-18T10:42:36;101670.77;;;4.54;47.43
47706;BME280;33471;52.104;1.318;2022-12-18T10:45:09;101678.10;;;3.83;48.23
47706;BME280;33471;52.104;1.318;2022-12-18T10:47:37;101667.33;;;4.59;48.15
47706;BME280;33471;52.104;1.318;2022-12-18T10:50:19;101662.89;;;5.03;46.45
47706;BME280;33471;52.104;1.318;2022-12-18T10:52:55;101655.87;;;5.14;46.76
47706;BME280;33471;52.104;1.318;2022-12-18T10:55:22;101649.70;;;5.08;45.96
47706;BME280;33471;52.104;1.318;2022-12-18T10:57:52;101640.70;;;5.39;45.98
47706;BME280;33471;52.104;1.318;2022-12-18T11:00:23;101642.32;;;4.85;47.37
47706;BME280;33471;52.104;1.318;2022-12-18T11:02:52;101634.36;;;4.24;47.21
47706;BME280;33471;52.104;1.318;2022-12-18T11:05:25;101627.68;;;5.80;46.38
47706;BME280;33471;52.104;1.318;2022-12-18T11:07:53;101620.21;;;4.27;46.77
47706;BME280;33471;52.104;1.318;2022-12-18T11:10:23;101605.28;;;5.16;47.33
47706;BME280;33471;52.104;1.318;2022-12-18T11:12:53;101597.44;;;4.32;48.88
47706;BME280;33471;52.104;1.318;2022-12-18T11:15:23;101592.18;;;4.51;48.27
47706;BME280;33471;52.104;1.318;2022-12-18T11:17:53;101595.25;;;4.40;48.29
47706;BME280;33471;52.104;1.318;2022-12-18T11:20:27;101603.63;;;4.95;47.87
47706;BME280;33471;52.104;1.318;2022-12-18T11:22:58;101599.81;;;4.34;47.97
47706;BME280;33471;52.104;1.318;2022-12-18T11:25:31;101589.46;;;5.00;47.50
47706;BME280;33471;52.104;1.318;2022-12-18T11:28:00;101573.82;;;4.86;47.52
47706;BME280;33471;52.104;1.318;2022-12-18T11:30:29;101569.91;;;4.83;47.47
47706;BME280;33471;52.104;1.318;2022-12-18T11:33:03;101578.23;;;3.85;48.09
47706;BME280;33471;52.104;1.318;2022-12-18T11:35:44;101569.67;;;5.10;47.20
47706;BME280;33471;52.104;1.318;2022-12-18T11:38:20;101550.14;;;5.33;46.57
47706;BME280;33471;52.104;1.318;2022-12-18T11:40:53;101547.09;;;4.68;48.78
47706;BME280;33471;52.104;1.318;2022-12-18T11:43:27;101555.62;;;4.09;49.66
47706;BME280;33471;52.104;1.318;2022-12-18T11:45:59;101554.37;;;4.43;47.76
47706;BME280;33471;52.104;1.318;2022-12-18T11:48:32;101543.87;;;5.10;46.57
47706;BME280;33471;52.104;1.318;2022-12-18T11:51:03;101545.29;;;4.66;46.51
47706;BME280;33471;52.104;1.318;2022-12-18T11:53:32;101521.63;;;4.09;47.84
47706;BME280;33471;52.104;1.318;2022-12-18T11:56:05;101542.71;;;3.49;47.80
47706;BME280;33471;52.104;1.318;2022-12-18T11:58:46;101538.55;;;4.75;47.27
47706;BME280;33471;52.104;1.318;2022-12-18T12:01:23;101544.64;;;4.31;48.63
47706;BME280;33471;52.104;1.318;2022-12-18T12:04:09;101531.40;;;3.53;48.56
47706;BME280;33471;52.104;1.318;2022-12-18T12:06:49;101521.15;;;4.94;47.12
47706;BME280;33471;52.104;1.318;2022-12-18T12:09:27;101522.83;;;5.16;46.16
47706;BME280;33471;52.104;1.318;2022-12-18T12:12:20;101514.70;;;4.45;46.71
47706;BME280;33471;52.104;1.318;2022-12-18T12:14:59;101507.83;;;4.16;47.93
47706;BME280;33471;52.104;1.318;2022-12-18T12:17:34;101506.76;;;4.17;47.49
47706;BME280;33471;52.104;1.318;2022-12-18T12:20:10;101498.10;;;4.40;46.66
47706;BME280;33471;52.104;1.318;2022-12-18T12:22:49;101479.87;;;4.83;47.59
47706;BME280;33471;52.104;1.318;2022-12-18T12:25:32;101481.24;;;3.94;48.21
47706;BME280;33471;52.104;1.318;2022-12-18T12:28:10;101491.20;;;3.67;47.05
47706;BME280;33471;52.104;1.318;2022-12-18T12:30:48;101490.67;;;4.62;47.79
47706;BME280;33471;52.104;1.318;2022-12-18T12:33:28;101492.42;;;4.75;46.97
47706;BME280;33471;52.104;1.318;2022-12-18T12:36:03;101486.85;;;4.56;45.79
47706;BME280;33471;52.104;1.318;2022-12-18T12:38:40;101464.50;;;4.64;46.04
47706;BME280;33471;52.104;1.318;2022-12-18T12:41:11;101437.61;;;5.89;45.23
47706;BME280;33471;52.104;1.318;2022-12-18T12:43:43;101431.33;;;4.94;46.36
47706;BME280;33471;52.104;1.318;2022-12-18T12:46:12;101413.12;;;5.74;44.84
47706;BME280;33471;52.104;1.318;2022-12-18T12:48:45;101411.85;;;5.99;44.85
47706;BME280;33471;52.104;1.318;2022-12-18T12:51:17;101418.73;;;5.16;45.81
47706;BME280;33471;52.104;1.318;2022-12-18T12:53:46;101411.01;;;5.31;45.87
47706;BME280;33471;52.104;1.318;2022-12-18T12:56:17;101402.85;;;4.98;45.63
47706;BME280;33471;52.104;1.318;2022-12-18T12:58:54;101397.43;;;5.49;45.57
47706;BME280;33471;52.104;1.318;2022-12-18T13:01:28;101395.54;;;5.71;44.55
47706;BME280;33471;52.104;1.318;2022-12-18T13:04:07;101394.84;;;5.54;44.50
47706;BME280;33471;52.104;1.318;2022-12-18T13:06:42;101399.20;;;5.88;44.37
47706;BME280;33471;52.104;1.318;2022-12-18T13:09:11;101394.95;;;5.86;44.28
47706;BME280;33471;52.104;1.318;2022-12-18T13:11:41;101398.24;;;6.28;43.96
47706;BME280;33471;52.104;1.318;2022-12-18T13:14:22;101399.43;;;5.66;44.63
47706;BME280;33471;52.104;1.318;2022-12-18T13:16:50;101391.24;;;6.12;43.62